sensor_id;sensor_type;location;lat;lon;timestamp;pressure;altitude;pressure_sealevel;temperature;humidity
5053;BME280;2545;50.892;5.740;2022-12-11T00:01:18;56374.84;;;-142.21;100.00
5053;BME280;2545;50.892;5.740;2022-12-11T00:03:45;56408.19;;;-142.21;100.00
5053;BME280;2545;50.892;5.740;2022-12-11T00:06:13;56418.00;;;-142.21;100.00
5053;BME280;2545;50.892;5.740;2022-12-11T00:08:39;56425.84;;;-142.21;100.00
5053;BME280;2545;50.892;5.740;2022-12-11T00:11:07;56404.28;;;-142.21;100.00
5053;BME280;2545;50.892;5.740;2022-12-11T00:13:33;56421.91;;;-142.21;100.00
5053;BME280;2545;50.892;5.740;2022-12-11T00:15:58;56386.63;;;-142.21;100.00
5053;BME280;2545;50.892;5.740;2022-12-11T00:18:23;56425.84;;;-142.21;100.00
5053;BME280;2545;50.892;5.740;2022-12-11T00:20:49;56419.97;;;-142.21;100.00
5053;BME280;2545;50.892;5.740;2022-12-11T00:23:14;56416.03;;;-142.21;100.00
5053;BME280;2545;50.892;5.740;2022-12-11T00:25:44;56400.34;;;-142.21;100.00
5053;BME280;2545;50.892;5.740;2022-12-11T00:28:12;56419.97;;;-142.21;100.00
5053;BME280;2545;50.892;5.740;2022-12-11T00:30:39;56410.16;;;-142.21;100.00
5053;BME280;2545;50.892;5.740;2022-12-11T00:33:05;56431.72;;;-142.21;100.00
5053;BME280;2545;50.892;5.740;2022-12-11T00:35:30;56416.03;;;-142.21;100.00
5053;BME280;2545;50.892;5.740;2022-12-11T00:37:56;56394.47;;;-142.21;100.00
5053;BME280;2545;50.892;5.740;2022-12-11T00:40:21;56410.16;;;-142.21;100.00
5053;BME280;2545;50.892;5.740;2022-12-11T00:42:46;56404.28;;;-142.21;100.00
5053;BME280;2545;50.892;5.740;2022-12-11T00:45:12;56380.75;;;-142.21;100.00
5053;BME280;2545;50.892;5.740;2022-12-11T00:47:37;56400.34;;;-142.21;100.00
5053;BME280;2545;50.892;5.740;2022-12-11T00:50:03;56412.13;;;-142.21;100.00
5053;BME280;2545;50.892;5.740;2022-12-11T00:52:28;56414.06;;;-142.21;100.00
5053;BME280;2545;50.892;5.740;2022-12-11T00:54:53;56427.81;;;-142.21;100.00
5053;BME280;2545;50.892;5.740;2022-12-11T00:57:19;56447.41;;;-142.21;100.00
5053;BME280;2545;50.892;5.740;2022-12-11T00:59:44;56429.75;;;-142.21;100.00
5053;BME280;2545;50.892;5.740;2022-12-11T01:02:09;56418.00;;;-142.21;100.00
5053;BME280;2545;50.892;5.740;2022-12-11T01:04:35;56357.22;;;-142.21;100.00
5053;BME280;2545;50.892;5.740;2022-12-11T01:07:01;56374.84;;;-142.21;100.00
5053;BME280;2545;50.892;5.740;2022-12-11T01:09:26;56427.81;;;-142.21;100.00
5053;BME280;2545;50.892;5.740;2022-12-11T01:12:10;56433.69;;;-142.21;100.00
5053;BME280;2545;50.892;5.740;2022-12-11T01:14:35;56396.44;;;-142.21;100.00
5053;BME280;2545;50.892;5.740;2022-12-11T01:17:00;56402.31;;;-142.21;100.00
5053;BME280;2545;50.892;5.740;2022-12-11T01:19:26;56437.59;;;-142.21;100.00
5053;BME280;2545;50.892;5.740;2022-12-11T01:21:51;56414.06;;;-142.21;100.00
5053;BME280;2545;50.892;5.740;2022-12-11T01:24:16;56414.06;;;-142.21;100.00
5053;BME280;2545;50.892;5.740;2022-12-11T01:26:42;56392.50;;;-142.21;100.00
5053;BME280;2545;50.892;5.740;2022-12-11T01:29:07;56396.44;;;-142.21;100.00
5053;BME280;2545;50.892;5.740;2022-12-11T01:31:32;56410.16;;;-142.21;100.00
5053;BME280;2545;50.892;5.740;2022-12-11T01:33:58;56408.19;;;-142.21;100.00
5053;BME280;2545;50.892;5.740;2022-12-11T01:36:23;56421.91;;;-142.21;100.00
5053;BME280;2545;50.892;5.740;2022-12-11T01:38:49;56437.59;;;-142.21;100.00
5053;BME280;2545;50.892;5.740;2022-12-11T01:41:15;56416.03;;;-142.21;100.00
5053;BME280;2545;50.892;5.740;2022-12-11T01:46:46;56449.38;;;-142.21;100.00
5053;BME280;2545;50.892;5.740;2022-12-11T01:49:13;56455.25;;;-142.21;100.00
5053;BME280;2545;50.892;5.740;2022-12-11T01:51:42;56394.47;;;-142.21;100.00
5053;BME280;2545;50.892;5.740;2022-12-11T01:54:11;56410.16;;;-142.21;100.00
5053;BME280;2545;50.892;5.740;2022-12-11T01:56:38;56433.69;;;-142.21;100.00
5053;BME280;2545;50.892;5.740;2022-12-11T01:59:06;56418.00;;;-142.21;100.00
5053;BME280;2545;50.892;5.740;2022-12-11T02:01:38;56414.06;;;-142.21;100.00
5053;BME280;2545;50.892;5.740;2022-12-11T02:04:06;56427.81;;;-142.21;100.00
5053;BME280;2545;50.892;5.740;2022-12-11T02:08:58;56419.97;;;-142.21;100.00
5053;BME280;2545;50.892;5.740;2022-12-11T02:11:34;56384.66;;;-142.21;100.00
5053;BME280;2545;50.892;5.740;2022-12-11T02:14:17;56384.66;;;-142.21;100.00
5053;BME280;2545;50.892;5.740;2022-12-11T02:16:55;56429.75;;;-142.21;100.00
5053;BME280;2545;50.892;5.740;2022-12-11T02:22:15;56455.25;;;-142.21;100.00
5053;BME280;2545;50.892;5.740;2022-12-11T02:25:04;56421.91;;;-142.21;100.00
5053;BME280;2545;50.892;5.740;2022-12-11T02:27:41;56410.16;;;-142.21;100.00
5053;BME280;2545;50.892;5.740;2022-12-11T02:30:12;56421.91;;;-142.21;100.00
5053;BME280;2545;50.892;5.740;2022-12-11T02:32:56;56412.13;;;-142.21;100.00
5053;BME280;2545;50.892;5.740;2022-12-11T02:35:31;56388.59;;;-142.21;100.00
5053;BME280;2545;50.892;5.740;2022-12-11T02:38:11;56414.06;;;-142.21;100.00
5053;BME280;2545;50.892;5.740;2022-12-11T02:40:39;56406.22;;;-142.21;100.00
5053;BME280;2545;50.892;5.740;2022-12-11T02:43:07;56414.06;;;-142.21;100.00
5053;BME280;2545;50.892;5.740;2022-12-11T02:45:34;56431.72;;;-142.21;100.00
5053;BME280;2545;50.892;5.740;2022-12-11T02:48:04;56451.34;;;-142.21;100.00
5053;BME280;2545;50.892;5.740;2022-12-11T02:50:30;56408.19;;;-142.21;100.00
5053;BME280;2545;50.892;5.740;2022-12-11T02:52:59;56418.00;;;-142.21;100.00
5053;BME280;2545;50.892;5.740;2022-12-11T02:55:27;56408.19;;;-142.21;100.00
5053;BME280;2545;50.892;5.740;2022-12-11T02:58:03;56414.06;;;-142.21;100.00
5053;BME280;2545;50.892;5.740;2022-12-11T03:00:30;56418.00;;;-142.21;100.00
5053;BME280;2545;50.892;5.740;2022-12-11T03:02:56;56414.06;;;-142.21;100.00
5053;BME280;2545;50.892;5.740;2022-12-11T03:05:22;56406.22;;;-142.21;100.00
5053;BME280;2545;50.892;5.740;2022-12-11T03:07:48;56406.22;;;-142.21;100.00
5053;BME280;2545;50.892;5.740;2022-12-11T03:10:15;56406.22;;;-142.21;100.00
5053;BME280;2545;50.892;5.740;2022-12-11T03:12:45;56394.47;;;-142.21;100.00
5053;BME280;2545;50.892;5.740;2022-12-11T03:15:14;56429.75;;;-142.21;100.00
5053;BME280;2545;50.892;5.740;2022-12-11T03:17:53;56398.38;;;-142.21;100.00
5053;BME280;2545;50.892;5.740;2022-12-11T03:20:38;56439.56;;;-142.21;100.00
5053;BME280;2545;50.892;5.740;2022-12-11T03:23:18;56394.47;;;-142.21;100.00
5053;BME280;2545;50.892;5.740;2022-12-11T03:25:51;56402.31;;;-142.21;100.00
5053;BME280;2545;50.892;5.740;2022-12-11T03:28:31;56427.81;;;-142.21;100.00
5053;BME280;2545;50.892;5.740;2022-12-11T03:31:02;56398.38;;;-142.21;100.00
5053;BME280;2545;50.892;5.740;2022-12-11T03:33:40;56414.06;;;-142.21;100.00
5053;BME280;2545;50.892;5.740;2022-12-11T03:36:15;56386.63;;;-142.21;100.00
5053;BME280;2545;50.892;5.740;2022-12-11T03:39:00;56441.53;;;-142.21;100.00
5053;BME280;2545;50.892;5.740;2022-12-11T03:41:27;56404.28;;;-142.21;100.00
5053;BME280;2545;50.892;5.740;2022-12-11T03:43:57;56421.91;;;-142.21;100.00
5053;BME280;2545;50.892;5.740;2022-12-11T03:46:27;56396.44;;;-142.21;100.00
5053;BME280;2545;50.892;5.740;2022-12-11T03:48:58;56437.59;;;-142.21;100.00
5053;BME280;2545;50.892;5.740;2022-12-11T03:51:25;56416.03;;;-142.21;100.00
5053;BME280;2545;50.892;5.740;2022-12-11T03:53:54;56398.38;;;-142.21;100.00
5053;BME280;2545;50.892;5.740;2022-12-11T03:56:20;56398.38;;;-142.21;100.00
5053;BME280;2545;50.892;5.740;2022-12-11T03:58:46;56410.16;;;-142.21;100.00
5053;BME280;2545;50.892;5.740;2022-12-11T04:01:11;56416.03;;;-142.21;100.00
5053;BME280;2545;50.892;5.740;2022-12-11T04:03:37;56410.16;;;-142.21;100.00
5053;BME280;2545;50.892;5.740;2022-12-11T04:06:03;56384.66;;;-142.21;100.00
5053;BME280;2545;50.892;5.740;2022-12-11T04:08:28;56404.28;;;-142.21;100.00
5053;BME280;2545;50.892;5.740;2022-12-11T04:10:53;56394.47;;;-142.21;100.00
5053;BME280;2545;50.892;5.740;2022-12-11T04:13:38;56418.00;;;-142.21;100.00
5053;BME280;2545;50.892;5.740;2022-12-11T04:16:04;56427.81;;;-142.21;98.87
5053;BME280;2545;50.892;5.740;2022-12-11T04:18:29;56382.69;;;-142.21;99.51
5053;BME280;2545;50.892;5.740;2022-12-11T04:21:13;56404.28;;;-142.21;98.41
5053;BME280;2545;50.892;5.740;2022-12-11T04:23:57;56437.59;;;-142.21;98.66
5053;BME280;2545;50.892;5.740;2022-12-11T04:26:42;56388.59;;;-142.21;98.71
5053;BME280;2545;50.892;5.740;2022-12-11T04:29:08;56398.38;;;-142.21;98.58
5053;BME280;2545;50.892;5.740;2022-12-11T04:31:33;56412.13;;;-142.21;98.92
5053;BME280;2545;50.892;5.740;2022-12-11T04:33:58;56419.97;;;-142.21;98.83
5053;BME280;2545;50.892;5.740;2022-12-11T04:36:24;56378.78;;;-142.21;99.61
5053;BME280;2545;50.892;5.740;2022-12-11T04:38:49;56425.84;;;-142.21;99.62
5053;BME280;2545;50.892;5.740;2022-12-11T04:41:15;56408.19;;;-142.21;99.11
5053;BME280;2545;50.892;5.740;2022-12-11T04:43:41;56414.06;;;-142.21;99.23
5053;BME280;2545;50.892;5.740;2022-12-11T04:46:14;56388.59;;;-142.21;99.09
5053;BME280;2545;50.892;5.740;2022-12-11T04:48:41;56388.59;;;-142.21;99.13
5053;BME280;2545;50.892;5.740;2022-12-11T04:51:07;56390.53;;;-142.21;98.21
5053;BME280;2545;50.892;5.740;2022-12-11T04:53:33;56396.44;;;-142.21;98.39
5053;BME280;2545;50.892;5.740;2022-12-11T04:55:59;56394.47;;;-142.21;97.60
5053;BME280;2545;50.892;5.740;2022-12-11T04:58:25;56400.34;;;-142.21;98.21
5053;BME280;2545;50.892;5.740;2022-12-11T05:00:51;56394.47;;;-142.21;96.84
5053;BME280;2545;50.892;5.740;2022-12-11T05:03:17;56408.19;;;-142.21;95.28
5053;BME280;2545;50.892;5.740;2022-12-11T05:05:52;56410.16;;;-142.21;95.56
5053;BME280;2545;50.892;5.740;2022-12-11T05:08:19;56394.47;;;-142.21;96.66
5053;BME280;2545;50.892;5.740;2022-12-11T05:10:54;56425.84;;;-142.21;97.78
5053;BME280;2545;50.892;5.740;2022-12-11T05:13:19;56441.53;;;-142.21;98.61
5053;BME280;2545;50.892;5.740;2022-12-11T05:15:44;56423.88;;;-142.21;98.98
5053;BME280;2545;50.892;5.740;2022-12-11T05:18:10;56437.59;;;-142.21;98.87
5053;BME280;2545;50.892;5.740;2022-12-11T05:20:35;56412.13;;;-142.21;97.92
5053;BME280;2545;50.892;5.740;2022-12-11T05:23:00;56390.53;;;-142.21;98.03
5053;BME280;2545;50.892;5.740;2022-12-11T05:25:26;56414.06;;;-142.21;95.45
5053;BME280;2545;50.892;5.740;2022-12-11T05:27:51;56374.84;;;-142.21;94.89
5053;BME280;2545;50.892;5.740;2022-12-11T05:30:16;56468.97;;;-142.21;96.02
5053;BME280;2545;50.892;5.740;2022-12-11T05:32:42;56406.22;;;-142.21;96.15
5053;BME280;2545;50.892;5.740;2022-12-11T05:35:07;56412.13;;;-142.21;96.29
5053;BME280;2545;50.892;5.740;2022-12-11T05:37:33;56398.38;;;-142.21;97.29
5053;BME280;2545;50.892;5.740;2022-12-11T05:39:58;56421.91;;;-142.21;99.08
5053;BME280;2545;50.892;5.740;2022-12-11T05:42:24;56433.69;;;-142.21;99.40
5053;BME280;2545;50.892;5.740;2022-12-11T05:44:49;56392.50;;;-142.21;99.25
5053;BME280;2545;50.892;5.740;2022-12-11T05:47:14;56400.34;;;-142.21;98.72
5053;BME280;2545;50.892;5.740;2022-12-11T05:49:40;56378.78;;;-142.21;97.63
5053;BME280;2545;50.892;5.740;2022-12-11T05:52:05;56418.00;;;-142.21;96.41
5053;BME280;2545;50.892;5.740;2022-12-11T05:54:31;56386.63;;;-142.21;96.20
5053;BME280;2545;50.892;5.740;2022-12-11T05:56:56;56410.16;;;-142.21;97.28
5053;BME280;2545;50.892;5.740;2022-12-11T05:59:21;56410.16;;;-142.21;97.63
5053;BME280;2545;50.892;5.740;2022-12-11T06:01:47;56378.78;;;-142.21;98.35
5053;BME280;2545;50.892;5.740;2022-12-11T06:04:12;56414.06;;;-142.21;98.58
5053;BME280;2545;50.892;5.740;2022-12-11T06:06:38;56378.78;;;-142.21;97.92
5053;BME280;2545;50.892;5.740;2022-12-11T06:09:05;56418.00;;;-142.21;97.68
5053;BME280;2545;50.892;5.740;2022-12-11T06:11:31;56425.84;;;-142.21;98.05
5053;BME280;2545;50.892;5.740;2022-12-11T06:13:58;56443.50;;;-142.21;98.37
5053;BME280;2545;50.892;5.740;2022-12-11T06:16:24;56388.59;;;-142.21;98.61
5053;BME280;2545;50.892;5.740;2022-12-11T06:18:49;56404.28;;;-142.21;99.26
5053;BME280;2545;50.892;5.740;2022-12-11T06:21:31;56398.38;;;-142.21;99.53
5053;BME280;2545;50.892;5.740;2022-12-11T06:23:59;56441.53;;;-142.21;99.18
5053;BME280;2545;50.892;5.740;2022-12-11T06:26:25;56412.13;;;-142.21;99.81
5053;BME280;2545;50.892;5.740;2022-12-11T06:28:51;56406.22;;;-142.21;100.00
5053;BME280;2545;50.892;5.740;2022-12-11T06:31:17;56406.22;;;-142.21;100.00
5053;BME280;2545;50.892;5.740;2022-12-11T06:33:43;56408.19;;;-142.21;100.00
5053;BME280;2545;50.892;5.740;2022-12-11T06:36:15;56410.16;;;-142.21;100.00
5053;BME280;2545;50.892;5.740;2022-12-11T06:38:40;56386.63;;;-142.21;100.00
5053;BME280;2545;50.892;5.740;2022-12-11T06:41:06;56390.53;;;-142.21;100.00
5053;BME280;2545;50.892;5.740;2022-12-11T06:43:33;56410.16;;;-142.21;100.00
5053;BME280;2545;50.892;5.740;2022-12-11T06:46:03;56406.22;;;-142.21;100.00
5053;BME280;2545;50.892;5.740;2022-12-11T06:48:28;56414.06;;;-142.21;100.00
5053;BME280;2545;50.892;5.740;2022-12-11T06:50:54;56398.38;;;-142.21;100.00
5053;BME280;2545;50.892;5.740;2022-12-11T06:53:19;56418.00;;;-142.21;100.00
5053;BME280;2545;50.892;5.740;2022-12-11T06:55:44;56429.75;;;-142.21;100.00
5053;BME280;2545;50.892;5.740;2022-12-11T06:58:10;56435.66;;;-142.21;100.00
5053;BME280;2545;50.892;5.740;2022-12-11T07:00:36;56406.22;;;-142.21;100.00
5053;BME280;2545;50.892;5.740;2022-12-11T07:03:02;56398.38;;;-142.21;100.00
5053;BME280;2545;50.892;5.740;2022-12-11T07:05:28;56386.63;;;-142.21;100.00
5053;BME280;2545;50.892;5.740;2022-12-11T07:07:54;56386.63;;;-142.21;100.00
5053;BME280;2545;50.892;5.740;2022-12-11T07:10:20;56418.00;;;-142.21;100.00
5053;BME280;2545;50.892;5.740;2022-12-11T07:12:45;56394.47;;;-142.21;100.00
5053;BME280;2545;50.892;5.740;2022-12-11T07:15:10;56421.91;;;-142.21;100.00
5053;BME280;2545;50.892;5.740;2022-12-11T07:17:36;56421.91;;;-142.21;100.00
5053;BME280;2545;50.892;5.740;2022-12-11T07:20:01;56402.31;;;-142.21;100.00
5053;BME280;2545;50.892;5.740;2022-12-11T07:22:27;56378.78;;;-142.21;100.00
5053;BME280;2545;50.892;5.740;2022-12-11T07:24:53;56408.19;;;-142.21;100.00
5053;BME280;2545;50.892;5.740;2022-12-11T07:27:18;56412.13;;;-142.21;100.00
5053;BME280;2545;50.892;5.740;2022-12-11T07:29:43;56394.47;;;-142.21;100.00
5053;BME280;2545;50.892;5.740;2022-12-11T07:32:09;56410.16;;;-142.21;100.00
5053;BME280;2545;50.892;5.740;2022-12-11T07:34:34;56396.44;;;-142.21;100.00
5053;BME280;2545;50.892;5.740;2022-12-11T07:37:00;56392.50;;;-142.21;100.00
5053;BME280;2545;50.892;5.740;2022-12-11T07:39:25;56435.66;;;-142.21;100.00
5053;BME280;2545;50.892;5.740;2022-12-11T07:41:50;56390.53;;;-142.21;100.00
5053;BME280;2545;50.892;5.740;2022-12-11T07:44:16;56418.00;;;-142.21;100.00
5053;BME280;2545;50.892;5.740;2022-12-11T07:46:41;56347.41;;;-142.21;100.00
5053;BME280;2545;50.892;5.740;2022-12-11T07:49:07;56418.00;;;-142.21;100.00
5053;BME280;2545;50.892;5.740;2022-12-11T07:51:35;56441.53;;;-142.21;100.00
5053;BME280;2545;50.892;5.740;2022-12-11T07:54:07;56447.41;;;-142.21;100.00
5053;BME280;2545;50.892;5.740;2022-12-11T07:56:33;56419.97;;;-142.21;100.00
5053;BME280;2545;50.892;5.740;2022-12-11T07:59:03;56408.19;;;-142.21;100.00
5053;BME280;2545;50.892;5.740;2022-12-11T08:01:30;56425.84;;;-142.21;100.00
5053;BME280;2545;50.892;5.740;2022-12-11T08:03:56;56451.34;;;-142.21;100.00
5053;BME280;2545;50.892;5.740;2022-12-11T08:06:29;56425.84;;;-142.21;100.00
5053;BME280;2545;50.892;5.740;2022-12-11T08:08:57;56429.75;;;-142.21;100.00
5053;BME280;2545;50.892;5.740;2022-12-11T08:11:22;56414.06;;;-142.21;100.00
5053;BME280;2545;50.892;5.740;2022-12-11T08:13:48;56419.97;;;-142.21;100.00
5053;BME280;2545;50.892;5.740;2022-12-11T08:16:14;56410.16;;;-142.21;100.00
5053;BME280;2545;50.892;5.740;2022-12-11T08:18:41;56394.47;;;-142.21;100.00
5053;BME280;2545;50.892;5.740;2022-12-11T08:21:11;56404.28;;;-142.21;100.00
5053;BME280;2545;50.892;5.740;2022-12-11T08:23:37;56427.81;;;-142.21;100.00
5053;BME280;2545;50.892;5.740;2022-12-11T08:26:04;56382.69;;;-142.21;100.00
5053;BME280;2545;50.892;5.740;2022-12-11T08:28:30;56382.69;;;-142.21;100.00
5053;BME280;2545;50.892;5.740;2022-12-11T08:30:55;56412.13;;;-142.21;100.00
5053;BME280;2545;50.892;5.740;2022-12-11T08:33:21;56410.16;;;-142.21;100.00
5053;BME280;2545;50.892;5.740;2022-12-11T08:35:46;56394.47;;;-142.21;100.00
5053;BME280;2545;50.892;5.740;2022-12-11T08:38:11;56380.75;;;-142.21;100.00
5053;BME280;2545;50.892;5.740;2022-12-11T08:40:37;56406.22;;;-142.21;100.00
5053;BME280;2545;50.892;5.740;2022-12-11T08:43:02;56425.84;;;-142.21;100.00
5053;BME280;2545;50.892;5.740;2022-12-11T08:45:28;56433.69;;;-142.21;100.00
5053;BME280;2545;50.892;5.740;2022-12-11T08:47:53;56419.97;;;-142.21;100.00
5053;BME280;2545;50.892;5.740;2022-12-11T08:50:19;56398.38;;;-142.21;100.00
5053;BME280;2545;50.892;5.740;2022-12-11T08:52:44;56425.84;;;-142.21;100.00
5053;BME280;2545;50.892;5.740;2022-12-11T08:55:10;56404.28;;;-142.21;100.00
5053;BME280;2545;50.892;5.740;2022-12-11T08:57:35;56423.88;;;-142.21;100.00
5053;BME280;2545;50.892;5.740;2022-12-11T09:00:05;56421.91;;;-142.21;100.00
5053;BME280;2545;50.892;5.740;2022-12-11T09:02:30;56416.03;;;-142.21;100.00
5053;BME280;2545;50.892;5.740;2022-12-11T09:04:55;56394.47;;;-142.21;100.00
5053;BME280;2545;50.892;5.740;2022-12-11T09:07:21;56423.88;;;-142.21;100.00
5053;BME280;2545;50.892;5.740;2022-12-11T09:09:46;56418.00;;;-142.21;100.00
5053;BME280;2545;50.892;5.740;2022-12-11T09:12:11;56433.69;;;-142.21;100.00
5053;BME280;2545;50.892;5.740;2022-12-11T09:14:38;56392.50;;;-142.21;100.00
5053;BME280;2545;50.892;5.740;2022-12-11T09:17:03;56402.31;;;-142.21;100.00
5053;BME280;2545;50.892;5.740;2022-12-11T09:19:29;56402.31;;;-142.21;100.00
5053;BME280;2545;50.892;5.740;2022-12-11T09:21:55;56400.34;;;-142.21;100.00
5053;BME280;2545;50.892;5.740;2022-12-11T09:24:20;56374.84;;;-142.21;100.00
5053;BME280;2545;50.892;5.740;2022-12-11T09:26:46;56410.16;;;-142.21;99.96
5053;BME280;2545;50.892;5.740;2022-12-11T09:29:12;56414.06;;;-142.21;100.00
5053;BME280;2545;50.892;5.740;2022-12-11T09:31:37;56380.75;;;-142.21;100.00
5053;BME280;2545;50.892;5.740;2022-12-11T09:34:05;56398.38;;;-142.21;100.00
5053;BME280;2545;50.892;5.740;2022-12-11T09:36:32;56425.84;;;-142.21;100.00
5053;BME280;2545;50.892;5.740;2022-12-11T09:39:02;56412.13;;;-142.21;100.00
5053;BME280;2545;50.892;5.740;2022-12-11T09:41:35;56421.91;;;-142.21;100.00
5053;BME280;2545;50.892;5.740;2022-12-11T09:44:18;56398.38;;;-142.21;100.00
5053;BME280;2545;50.892;5.740;2022-12-11T09:46:44;56400.34;;;-142.21;100.00
5053;BME280;2545;50.892;5.740;2022-12-11T09:49:27;56441.53;;;-142.21;100.00
5053;BME280;2545;50.892;5.740;2022-12-11T09:52:31;56384.66;;;-142.21;100.00
5053;BME280;2545;50.892;5.740;2022-12-11T09:54:59;56406.22;;;-142.21;100.00
5053;BME280;2545;50.892;5.740;2022-12-11T09:57:38;56435.66;;;-142.21;99.65
5053;BME280;2545;50.892;5.740;2022-12-11T10:00:20;56433.69;;;-142.21;99.01
5053;BME280;2545;50.892;5.740;2022-12-11T10:08:49;56384.66;;;-142.21;98.24
5053;BME280;2545;50.892;5.740;2022-12-11T10:17:31;56412.13;;;-142.21;97.49
5053;BME280;2545;50.892;5.740;2022-12-11T10:20:24;56425.84;;;-142.21;97.98
5053;BME280;2545;50.892;5.740;2022-12-11T10:22:51;56396.44;;;-142.21;98.46
5053;BME280;2545;50.892;5.740;2022-12-11T10:25:24;56402.31;;;-142.21;98.29
5053;BME280;2545;50.892;5.740;2022-12-11T10:27:52;56398.38;;;-142.21;98.09
5053;BME280;2545;50.892;5.740;2022-12-11T10:35:41;56437.59;;;-142.21;96.15
5053;BME280;2545;50.892;5.740;2022-12-11T10:38:21;56447.41;;;-142.21;95.79
5053;BME280;2545;50.892;5.740;2022-12-11T10:40:54;56429.75;;;-142.21;94.81
5053;BME280;2545;50.892;5.740;2022-12-11T10:43:19;56394.47;;;-142.21;94.53
5053;BME280;2545;50.892;5.740;2022-12-11T10:45:54;56406.22;;;-142.21;93.09
5053;BME280;2545;50.892;5.740;2022-12-11T10:48:20;56414.06;;;-142.21;92.12
5053;BME280;2545;50.892;5.740;2022-12-11T10:51:13;56437.59;;;-142.21;91.12
5053;BME280;2545;50.892;5.740;2022-12-11T10:53:39;56384.66;;;-142.21;90.72
5053;BME280;2545;50.892;5.740;2022-12-11T10:56:05;56392.50;;;-142.21;92.04
5053;BME280;2545;50.892;5.740;2022-12-11T10:58:32;56341.53;;;-142.21;92.57
5053;BME280;2545;50.892;5.740;2022-12-11T11:03:34;56408.19;;;-142.21;93.17
5053;BME280;2545;50.892;5.740;2022-12-11T11:06:17;56418.00;;;-142.21;92.38
5053;BME280;2545;50.892;5.740;2022-12-11T11:08:47;56368.97;;;-142.21;92.52
5053;BME280;2545;50.892;5.740;2022-12-11T11:11:29;56390.53;;;-142.21;92.12
5053;BME280;2545;50.892;5.740;2022-12-11T11:16:31;56406.22;;;-142.21;91.77
5053;BME280;2545;50.892;5.740;2022-12-11T11:18:59;56414.06;;;-142.21;92.13
5053;BME280;2545;50.892;5.740;2022-12-11T11:21:24;56410.16;;;-142.21;92.39
5053;BME280;2545;50.892;5.740;2022-12-11T11:23:52;56410.16;;;-142.21;92.34
5053;BME280;2545;50.892;5.740;2022-12-11T11:26:18;56412.13;;;-142.21;92.41
5053;BME280;2545;50.892;5.740;2022-12-11T11:28:51;56414.06;;;-142.21;92.76
5053;BME280;2545;50.892;5.740;2022-12-11T11:31:18;56418.00;;;-142.21;91.95
5053;BME280;2545;50.892;5.740;2022-12-11T11:33:56;56390.53;;;-142.21;92.36
5053;BME280;2545;50.892;5.740;2022-12-11T11:36:26;56419.97;;;-142.21;93.62
5053;BME280;2545;50.892;5.740;2022-12-11T11:41:57;56378.78;;;-142.21;90.51
5053;BME280;2545;50.892;5.740;2022-12-11T11:44:30;56398.38;;;-142.21;90.48
5053;BME280;2545;50.892;5.740;2022-12-11T11:47:02;56416.03;;;-142.21;89.69
5053;BME280;2545;50.892;5.740;2022-12-11T11:49:39;56414.06;;;-142.21;89.03
5053;BME280;2545;50.892;5.740;2022-12-11T11:52:22;56423.88;;;-142.21;88.57
5053;BME280;2545;50.892;5.740;2022-12-11T11:54:58;56378.78;;;-142.21;87.60
5053;BME280;2545;50.892;5.740;2022-12-11T11:57:44;56418.00;;;-142.21;88.45
5053;BME280;2545;50.892;5.740;2022-12-11T12:00:18;56390.53;;;-142.21;88.85
5053;BME280;2545;50.892;5.740;2022-12-11T12:02:47;56398.38;;;-142.21;89.24
5053;BME280;2545;50.892;5.740;2022-12-11T12:05:13;56419.97;;;-142.21;89.47
5053;BME280;2545;50.892;5.740;2022-12-11T12:08:22;56423.88;;;-142.21;89.23
5053;BME280;2545;50.892;5.740;2022-12-11T12:13:43;56453.28;;;-142.21;90.12
5053;BME280;2545;50.892;5.740;2022-12-11T12:16:34;56418.00;;;-142.21;90.98
5053;BME280;2545;50.892;5.740;2022-12-11T12:19:40;56410.16;;;-142.21;90.18
5053;BME280;2545;50.892;5.740;2022-12-11T12:22:25;56433.69;;;-142.21;90.76
5053;BME280;2545;50.892;5.740;2022-12-11T12:25:05;56392.50;;;-142.21;91.57
5053;BME280;2545;50.892;5.740;2022-12-11T12:27:45;56363.09;;;-142.21;88.23
5053;BME280;2545;50.892;5.740;2022-12-11T12:30:17;56429.75;;;-142.21;87.66
5053;BME280;2545;50.892;5.740;2022-12-11T12:32:53;56404.28;;;-142.21;88.62
5053;BME280;2545;50.892;5.740;2022-12-11T12:35:35;56427.81;;;-142.21;88.45
5053;BME280;2545;50.892;5.740;2022-12-11T12:38:04;56378.78;;;-142.21;87.25
5053;BME280;2545;50.892;5.740;2022-12-11T12:40:35;56394.47;;;-142.21;87.51
5053;BME280;2545;50.892;5.740;2022-12-11T12:43:17;56431.72;;;-142.21;86.95
5053;BME280;2545;50.892;5.740;2022-12-11T12:48:45;56429.75;;;-142.21;85.08
5053;BME280;2545;50.892;5.740;2022-12-11T12:51:12;56412.13;;;-142.21;85.49
5053;BME280;2545;50.892;5.740;2022-12-11T12:53:40;56412.13;;;-142.21;84.39
5053;BME280;2545;50.892;5.740;2022-12-11T12:56:10;56398.38;;;-142.21;84.87
5053;BME280;2545;50.892;5.740;2022-12-11T12:58:44;56402.31;;;-142.21;87.49
5053;BME280;2545;50.892;5.740;2022-12-11T13:04:02;56404.28;;;-142.21;86.92
5053;BME280;2545;50.892;5.740;2022-12-11T13:08:53;56378.78;;;-142.21;89.44
5053;BME280;2545;50.892;5.740;2022-12-11T13:11:20;56374.84;;;-142.21;88.25
5053;BME280;2545;50.892;5.740;2022-12-11T13:14:05;56386.63;;;-142.21;88.29
5053;BME280;2545;50.892;5.740;2022-12-11T13:16:37;56374.84;;;-142.21;88.29
5053;BME280;2545;50.892;5.740;2022-12-11T13:19:16;56416.03;;;-142.21;87.83
5053;BME280;2545;50.892;5.740;2022-12-11T13:21:42;56408.19;;;-142.21;86.54
5053;BME280;2545;50.892;5.740;2022-12-11T13:26:39;56410.16;;;-142.21;85.28
5053;BME280;2545;50.892;5.740;2022-12-11T13:29:05;56414.06;;;-142.21;84.76
5053;BME280;2545;50.892;5.740;2022-12-11T13:31:36;56421.91;;;-142.21;86.24
5053;BME280;2545;50.892;5.740;2022-12-11T13:34:14;56370.94;;;-142.21;87.56
5053;BME280;2545;50.892;5.740;2022-12-11T13:36:40;56396.44;;;-142.21;87.15
5053;BME280;2545;50.892;5.740;2022-12-11T13:39:18;56429.75;;;-142.21;86.15
5053;BME280;2545;50.892;5.740;2022-12-11T13:41:51;56423.88;;;-142.21;85.94
5053;BME280;2545;50.892;5.740;2022-12-11T13:44:25;56418.00;;;-142.21;86.31
5053;BME280;2545;50.892;5.740;2022-12-11T13:46:52;56396.44;;;-142.21;85.50
5053;BME280;2545;50.892;5.740;2022-12-11T13:49:22;56396.44;;;-142.21;85.21
5053;BME280;2545;50.892;5.740;2022-12-11T13:51:56;56398.38;;;-142.21;85.29
5053;BME280;2545;50.892;5.740;2022-12-11T13:54:22;56414.06;;;-142.21;85.49